Time;durP1;ratioP1;P1;durP2;ratioP2;P2;SDS_P1;SDS_P2;PMS_P1;PMS_P2;Temp;Humidity;BMP_temperature;BMP_pressure;BME280_temperature;BME280_humidity;BME280_pressure;Samples;Min_cycle;Max_cycle;Signal;HPM_P1;HPM_P2
2022/05/08 00:00:28;;;;;;;;;;;;;;;16.41;74.21;101057.19;5041957;28;20349;-78
2022/05/08 00:03:12;;;;;;;;;;;;;;;16.37;74.46;101050.81;5055305;28;19980;-78
2022/05/08 00:05:59;;;;;;;;;;;;;;;16.41;74.27;101055.25;5055721;28;19917;-78
2022/05/08 00:08:43;;;;;;;;;;;;;;;16.38;74.33;101052.41;5056222;28;19912;-78
2022/05/08 00:11:29;;;;;;;;;;;;;;;16.39;74.18;101049.31;5056274;28;20305;-79
2022/05/08 00:14:13;;;;;;;;;;;;;;;16.38;74.36;101041.44;5057475;28;19912;-78
2022/05/08 00:16:58;;;;;;;;;;;;;;;16.37;74.49;101039.81;5059802;28;19912;-80
2022/05/08 00:19:43;;;;;;;;;;;;;;;16.39;74.26;101043.84;5056276;28;20301;-79
2022/05/08 00:22:28;;;;;;;;;;;;;;;16.34;74.75;101046.00;5048445;28;19913;-79
2022/05/08 00:25:12;;;;;;;;;;;;;;;16.29;74.76;101047.06;5056963;28;19916;-79
2022/05/08 00:27:57;;;;;;;;;;;;;;;16.25;74.76;101044.19;5056339;28;19912;-79
2022/05/08 00:30:41;;;;;;;;;;;;;;;16.25;74.93;101041.44;5056085;28;19912;-79
2022/05/08 00:33:26;;;;;;;;;;;;;;;16.22;74.89;101035.84;5059732;28;19913;-80
2022/05/08 00:36:10;;;;;;;;;;;;;;;16.20;75.05;101041.66;5059662;28;20289;-79
2022/05/08 00:38:55;;;;;;;;;;;;;;;16.16;75.32;101031.72;5058787;28;19916;-78
2022/05/08 00:41:39;;;;;;;;;;;;;;;16.15;75.27;101039.16;5058853;28;20289;-79
2022/05/08 00:44:24;;;;;;;;;;;;;;;16.12;75.27;101037.13;5057905;28;19932;-80
2022/05/08 00:47:08;;;;;;;;;;;;;;;16.10;75.29;101035.88;5071780;28;19921;-79
2022/05/08 00:49:53;;;;;;;;;;;;;;;16.10;75.07;101030.38;5061676;28;19912;-78
2022/05/08 00:52:38;;;;;;;;;;;;;;;16.08;75.46;101033.47;5059868;28;20332;-79
2022/05/08 00:55:22;;;;;;;;;;;;;;;16.10;75.42;101027.66;5038265;28;19913;-79
2022/05/08 00:58:06;;;;;;;;;;;;;;;16.13;75.32;101032.44;5055984;28;19917;-78
2022/05/08 01:00:51;;;;;;;;;;;;;;;16.19;74.79;101026.38;5054969;28;19913;-79
2022/05/08 01:03:36;;;;;;;;;;;;;;;16.14;75.10;101029.34;5039149;28;19921;-79
2022/05/08 01:06:20;;;;;;;;;;;;;;;16.08;75.61;101021.69;5058406;28;19913;-79
2022/05/08 01:09:04;;;;;;;;;;;;;;;16.14;75.29;101023.06;5057780;28;19912;-79
2022/05/08 01:11:49;;;;;;;;;;;;;;;16.16;75.00;101024.31;5058448;28;19931;-78
2022/05/08 01:14:33;;;;;;;;;;;;;;;16.15;75.03;101017.22;5058050;28;19912;-79
2022/05/08 01:17:17;;;;;;;;;;;;;;;16.10;75.17;101017.44;5061108;28;19917;-78
2022/05/08 01:20:02;;;;;;;;;;;;;;;16.06;75.17;101023.97;5059112;28;20308;-79
2022/05/08 01:22:47;;;;;;;;;;;;;;;16.11;74.84;101030.03;5057780;28;19913;-77
2022/05/08 01:25:35;;;;;;;;;;;;;;;16.06;75.02;101030.25;5057516;28;19912;-80
2022/05/08 01:28:23;;;;;;;;;;;;;;;16.08;75.20;101022.50;5058893;28;19913;-77
2022/05/08 01:31:07;;;;;;;;;;;;;;;16.09;74.98;101026.03;5057132;28;19928;-78
2022/05/08 01:33:52;;;;;;;;;;;;;;;16.12;74.87;101028.09;5058010;28;19913;-78
2022/05/08 01:36:36;;;;;;;;;;;;;;;16.12;74.73;101022.59;5057752;28;20408;-79
2022/05/08 01:39:20;;;;;;;;;;;;;;;16.08;74.71;101025.25;5049975;28;19917;-79
2022/05/08 01:42:06;;;;;;;;;;;;;;;16.05;75.05;101020.41;5054607;28;20105;-79
2022/05/08 01:44:51;;;;;;;;;;;;;;;16.06;75.00;101030.25;5053029;28;19912;-79
2022/05/08 01:50:40;;;;;;;;;;;;;;;16.00;75.48;101020.66;5052627;28;19913;-80
2022/05/08 01:53:27;;;;;;;;;;;;;;;16.08;75.08;101030.72;5059750;28;19913;-79
2022/05/08 01:56:12;;;;;;;;;;;;;;;16.03;75.61;101025.47;5057816;28;19931;-78
2022/05/08 01:58:58;;;;;;;;;;;;;;;16.06;75.55;101029.47;5058411;28;19916;-79
2022/05/08 02:01:43;;;;;;;;;;;;;;;15.97;75.75;101024.09;5058480;28;19912;-78
2022/05/08 02:04:29;;;;;;;;;;;;;;;16.02;75.52;101034.03;5053175;28;19913;-80
2022/05/08 02:07:15;;;;;;;;;;;;;;;16.00;75.72;101025.38;5063428;28;19917;-79
2022/05/08 02:10:00;;;;;;;;;;;;;;;15.94;76.14;101016.56;5056757;28;19913;-79
2022/05/08 02:12:45;;;;;;;;;;;;;;;15.96;76.15;101027.97;5058810;28;19913;-80
2022/05/08 02:15:29;;;;;;;;;;;;;;;15.89;76.73;101019.53;5050738;28;19917;-79
2022/05/08 02:18:16;;;;;;;;;;;;;;;15.90;76.82;101021.13;5036493;28;19913;-79
2022/05/08 02:21:01;;;;;;;;;;;;;;;15.96;76.23;101025.22;5036349;28;19912;-77
2022/05/08 02:23:45;;;;;;;;;;;;;;;16.02;76.19;101023.06;5035963;28;19913;-79
2022/05/08 02:26:30;;;;;;;;;;;;;;;16.03;75.97;101030.97;5037394;28;19913;-79
2022/05/08 02:29:14;;;;;;;;;;;;;;;16.00;76.00;101014.41;5037643;28;19913;-79
2022/05/08 02:31:58;;;;;;;;;;;;;;;15.90;76.64;101023.09;5043546;28;19913;-80
2022/05/08 02:34:43;;;;;;;;;;;;;;;15.92;76.70;101024.31;5060677;28;20540;-79
2022/05/08 02:37:27;;;;;;;;;;;;;;;15.92;76.58;101021.59;5052611;28;19917;-79
2022/05/08 02:40:13;;;;;;;;;;;;;;;15.90;76.74;101014.88;5057968;28;19917;-79
2022/05/08 02:42:57;;;;;;;;;;;;;;;15.93;76.55;101014.97;5057263;28;19913;-79
2022/05/08 02:45:42;;;;;;;;;;;;;;;15.93;76.48;101014.97;5058457;28;19912;-79
2022/05/08 02:48:26;;;;;;;;;;;;;;;15.87;76.69;101010.84;5055856;28;20297;-79
2022/05/08 02:51:11;;;;;;;;;;;;;;;15.90;76.35;101009.38;5055178;28;20301;-79
2022/05/08 02:53:55;;;;;;;;;;;;;;;15.93;76.10;101004.00;5055534;28;19921;-79
2022/05/08 02:59:44;;;;;;;;;;;;;;;15.91;76.38;101016.44;5055129;28;20369;-80
2022/05/08 03:02:29;;;;;;;;;;;;;;;15.87;76.71;101013.59;5057245;28;19912;-79
2022/05/08 03:05:16;;;;;;;;;;;;;;;15.89;76.64;101013.25;5055192;28;19913;-79
2022/05/08 03:08:01;;;;;;;;;;;;;;;15.91;76.35;101016.44;5055185;28;20369;-79
2022/05/08 03:13:50;;;;;;;;;;;;;;;15.81;76.45;101012.22;5056616;28;19928;-79
2022/05/08 03:16:35;;;;;;;;;;;;;;;15.82;76.40;101008.34;5056413;28;19912;-80
2022/05/08 03:19:21;;;;;;;;;;;;;;;15.85;76.35;101012.34;5048934;28;19917;-79
2022/05/08 03:22:06;;;;;;;;;;;;;;;15.87;76.45;101015.53;5055157;28;19912;-79
2022/05/08 03:24:50;;;;;;;;;;;;;;;15.83;76.69;101009.94;5055435;28;20007;-79
2022/05/08 03:27:34;;;;;;;;;;;;;;;15.83;76.66;101007.19;5055326;28;19913;-79
2022/05/08 03:30:20;;;;;;;;;;;;;;;15.83;76.46;101004.47;5055244;28;19913;-79
2022/05/08 03:33:06;;;;;;;;;;;;;;;15.82;76.58;101000.91;5055299;28;19912;-79
2022/05/08 03:35:51;;;;;;;;;;;;;;;15.84;76.28;101006.06;5055865;28;19913;-79
2022/05/08 03:38:39;;;;;;;;;;;;;;;15.91;76.26;101005.47;5057350;28;19912;-80
2022/05/08 03:41:23;;;;;;;;;;;;;;;15.92;75.92;101007.88;5050894;28;19913;-79
2022/05/08 03:44:08;;;;;;;;;;;;;;;15.84;76.18;101011.53;5057613;28;19912;-79
2022/05/08 03:46:52;;;;;;;;;;;;;;;15.88;75.99;101014.38;5055783;28;19912;-79
2022/05/08 03:49:36;;;;;;;;;;;;;;;15.91;75.92;101006.25;5059037;28;19913;-79
2022/05/08 03:52:21;;;;;;;;;;;;;;;15.90;75.78;101007.41;5058044;28;19913;-79
2022/05/08 03:55:06;;;;;;;;;;;;;;;15.90;75.85;101010.16;5056238;28;19912;-80
2022/05/08 03:57:50;;;;;;;;;;;;;;;15.87;75.73;101016.34;5056739;28;19912;-79
2022/05/08 04:00:35;;;;;;;;;;;;;;;15.85;76.14;101015.09;5052381;28;19917;-79
2022/05/08 04:03:19;;;;;;;;;;;;;;;15.86;76.03;101009.25;5037511;28;19913;-80
2022/05/08 04:06:04;;;;;;;;;;;;;;;15.84;76.21;101011.53;5036272;28;19913;-79
2022/05/08 04:08:51;;;;;;;;;;;;;;;15.81;76.15;101015.75;5035134;28;20284;-79
2022/05/08 04:11:35;;;;;;;;;;;;;;;15.83;76.09;101015.44;5035870;28;19913;-79
2022/05/08 04:14:19;;;;;;;;;;;;;;;15.86;75.96;101019.41;5039116;28;19913;-79
2022/05/08 04:17:04;;;;;;;;;;;;;;;15.83;76.19;101018.97;5053049;28;19913;-79
2022/05/08 04:19:49;;;;;;;;;;;;;;;15.82;76.12;101024.78;5054315;28;19917;-79
2022/05/08 04:25:37;;;;;;;;;;;;;;;15.81;76.33;101023.97;5057087;28;19912;-79
2022/05/08 04:28:21;;;;;;;;;;;;;;;15.85;76.37;101028.81;5055971;28;19913;-79
2022/05/08 04:31:06;;;;;;;;;;;;;;;15.85;76.45;101040.53;5053660;28;19912;-78
2022/05/08 04:33:50;;;;;;;;;;;;;;;15.82;76.52;101039.31;5055317;28;20281;-78
2022/05/08 04:36:34;;;;;;;;;;;;;;;15.85;76.40;101040.53;5054469;28;19912;-79
2022/05/08 04:39:19;;;;;;;;;;;;;;;15.91;76.24;101039.19;5049752;28;19917;-79
2022/05/08 04:42:03;;;;;;;;;;;;;;;15.73;77.52;101044.09;5047969;28;19913;-81
2022/05/08 04:44:48;;;;;;;;;;;;;;;15.48;78.68;101047.13;5067121;28;19916;-80
2022/05/08 04:47:33;;;;;;;;;;;;;;;15.48;79.11;101049.84;5066358;28;19912;-79
2022/05/08 04:50:17;;;;;;;;;;;;;;;15.77;78.09;101044.22;5051091;28;19932;-78
2022/05/08 04:53:02;;;;;;;;;;;;;;;15.93;77.45;101055.31;5052878;28;19912;-78
2022/05/08 04:55:46;;;;;;;;;;;;;;;16.00;77.27;101050.84;5052377;28;20304;-78
2022/05/08 04:58:31;;;;;;;;;;;;;;;16.50;74.64;101050.44;5040475;28;19912;-79
2022/05/08 05:01:16;;;;;;;;;;;;;;;16.63;73.94;101060.28;5044868;28;19916;-78
2022/05/08 05:04:00;;;;;;;;;;;;;;;16.27;75.56;101057.56;5051752;28;20381;-79
2022/05/08 05:06:47;;;;;;;;;;;;;;;16.42;75.11;101061.53;5044522;28;20393;-78
2022/05/08 05:09:31;;;;;;;;;;;;;;;16.40;75.47;101059.16;5046591;28;19932;-79
2022/05/08 05:12:16;;;;;;;;;;;;;;;16.49;74.12;101059.03;5051368;28;19913;-79
2022/05/08 05:15:01;;;;;;;;;;;;;;;16.36;75.09;101066.47;5057724;28;19912;-79
2022/05/08 05:17:45;;;;;;;;;;;;;;;16.24;75.53;101064.56;5052781;28;19913;-79
2022/05/08 05:20:30;;;;;;;;;;;;;;;16.45;74.77;101064.41;5051421;28;19916;-81
2022/05/08 05:23:14;;;;;;;;;;;;;;;16.46;74.60;101068.72;5063450;28;20281;-79
2022/05/08 05:25:58;;;;;;;;;;;;;;;16.39;74.82;101067.72;5059178;28;19913;-80
2022/05/08 05:28:44;;;;;;;;;;;;;;;16.41;74.34;101068.16;5057856;28;19912;-79
2022/05/08 05:31:29;;;;;;;;;;;;;;;16.44;74.18;101082.03;5062449;28;19916;-79
2022/05/08 05:34:14;;;;;;;;;;;;;;;16.42;74.40;101081.56;5057711;28;19913;-78
2022/05/08 05:36:59;;;;;;;;;;;;;;;16.24;75.07;101086.50;5057944;28;20289;-80
2022/05/08 05:39:43;;;;;;;;;;;;;;;16.20;74.61;101085.56;5059805;28;19917;-80
2022/05/08 05:42:28;;;;;;;;;;;;;;;16.12;75.02;101081.03;5055897;28;19916;-81
2022/05/08 05:45:12;;;;;;;;;;;;;;;16.25;74.86;101081.81;5058225;28;19916;-79
2022/05/08 05:47:59;;;;;;;;;;;;;;;16.35;74.00;101086.03;5057250;28;19913;-79
2022/05/08 05:50:44;;;;;;;;;;;;;;;16.51;73.60;101089.66;5057957;28;19912;-80
2022/05/08 05:53:28;;;;;;;;;;;;;;;16.64;73.39;101094.03;5051126;28;19917;-80
2022/05/08 05:56:12;;;;;;;;;;;;;;;16.89;72.09;101092.00;5057498;28;19913;-81
2022/05/08 05:58:57;;;;;;;;;;;;;;;17.01;72.19;101097.47;5056867;28;19913;-79
2022/05/08 06:01:42;;;;;;;;;;;;;;;17.06;71.35;101105.47;5085643;28;20381;-78
2022/05/08 06:04:26;;;;;;;;;;;;;;;17.28;70.73;101112.34;5076560;28;19937;-80
2022/05/08 06:07:11;;;;;;;;;;;;;;;17.42;70.26;101102.53;5059667;28;19912;-80
2022/05/08 06:09:55;;;;;;;;;;;;;;;17.66;69.93;101107.16;5058827;28;19912;-78
2022/05/08 06:12:40;;;;;;;;;;;;;;;17.92;68.22;101110.19;5056950;28;19913;-78
2022/05/08 06:15:24;;;;;;;;;;;;;;;17.80;68.13;101110.25;5060315;28;19913;-80
2022/05/08 06:18:09;;;;;;;;;;;;;;;17.81;68.22;101117.38;5056732;28;19913;-80
2022/05/08 06:20:54;;;;;;;;;;;;;;;17.72;68.88;101113.19;5056898;28;19916;-79
2022/05/08 06:23:38;;;;;;;;;;;;;;;17.50;69.77;101117.28;5058398;28;19912;-78
2022/05/08 06:26:26;;;;;;;;;;;;;;;17.32;70.25;101118.78;5064670;28;19916;-78
2022/05/08 06:29:11;;;;;;;;;;;;;;;17.23;70.87;101129.09;5076093;28;19912;-80
2022/05/08 06:31:56;;;;;;;;;;;;;;;17.27;70.52;101125.28;5058689;28;19913;-80
2022/05/08 06:34:41;;;;;;;;;;;;;;;17.44;69.71;101121.44;5056882;28;19913;-79
2022/05/08 06:37:25;;;;;;;;;;;;;;;17.68;68.30;101126.84;5056728;28;19920;-80
2022/05/08 06:40:10;;;;;;;;;;;;;;;17.60;68.81;101127.81;5061452;28;20285;-81
2022/05/08 06:42:55;;;;;;;;;;;;;;;17.68;68.56;101131.53;5056951;28;19913;-78
2022/05/08 06:45:39;;;;;;;;;;;;;;;17.61;68.92;101132.16;5059367;28;20308;-79
2022/05/08 06:48:25;;;;;;;;;;;;;;;17.56;69.36;101132.38;5054990;28;19917;-80
2022/05/08 06:51:11;;;;;;;;;;;;;;;17.83;68.09;101120.53;5056120;28;19912;-77
2022/05/08 06:53:55;;;;;;;;;;;;;;;18.11;67.09;101130.69;5056765;28;19913;-79
2022/05/08 06:56:41;;;;;;;;;;;;;;;18.23;66.64;101125.09;5056164;28;19913;-78
2022/05/08 07:02:29;;;;;;;;;;;;;;;18.42;65.04;101133.41;5062641;28;20312;-79
2022/05/08 07:05:13;;;;;;;;;;;;;;;18.38;65.15;101130.59;5059805;28;19912;-79
2022/05/08 07:07:58;;;;;;;;;;;;;;;18.57;64.57;101137.31;5065844;28;19916;-80
2022/05/08 07:10:42;;;;;;;;;;;;;;;18.39;64.96;101134.09;5076110;28;20288;-81
2022/05/08 07:13:28;;;;;;;;;;;;;;;18.32;65.25;101133.97;5063332;28;19913;-78
2022/05/08 07:16:12;;;;;;;;;;;;;;;18.10;65.44;101145.59;5057077;28;20385;-78
2022/05/08 07:18:56;;;;;;;;;;;;;;;17.83;66.66;101144.50;5064101;28;20297;-80
2022/05/08 07:21:41;;;;;;;;;;;;;;;17.67;67.57;101147.25;5063142;28;19916;-80
2022/05/08 07:24:25;;;;;;;;;;;;;;;17.57;67.64;101147.75;5066103;28;20296;-79
2022/05/08 07:27:11;;;;;;;;;;;;;;;17.50;67.61;101153.84;5063327;28;20400;-80
2022/05/08 07:29:56;;;;;;;;;;;;;;;17.44;67.56;101155.25;5060739;28;19913;-79
2022/05/08 07:32:40;;;;;;;;;;;;;;;17.33;67.94;101156.09;5058246;28;19913;-79
2022/05/08 07:38:28;;;;;;;;;;;;;;;17.23;68.64;101159.31;5046009;28;19920;-80
2022/05/08 07:41:15;;;;;;;;;;;;;;;17.16;68.76;101161.88;5054111;28;19980;-78
2022/05/08 07:43:59;;;;;;;;;;;;;;;17.10;69.31;101156.63;5056474;28;20293;-78
2022/05/08 07:46:44;;;;;;;;;;;;;;;17.12;69.60;101171.97;5058976;28;20373;-79
2022/05/08 07:49:28;;;;;;;;;;;;;;;17.14;68.99;101175.97;5054674;28;19916;-80
2022/05/08 07:52:12;;;;;;;;;;;;;;;17.30;68.53;101173.28;5063283;28;19912;-77
2022/05/08 07:54:57;;;;;;;;;;;;;;;17.39;68.46;101180.22;5054829;28;19913;-79
2022/05/08 07:57:41;;;;;;;;;;;;;;;17.30;68.98;101176.03;5057800;28;19909;-78
2022/05/08 08:00:25;;;;;;;;;;;;;;;17.37;68.57;101187.25;5048127;28;19917;-77
2022/05/08 08:03:10;;;;;;;;;;;;;;;17.44;68.49;101185.47;5055440;28;19913;-80
2022/05/08 08:05:55;;;;;;;;;;;;;;;17.52;68.52;101190.03;5053380;28;19912;-77
2022/05/08 08:08:39;;;;;;;;;;;;;;;17.56;67.94;101192.09;5050782;28;20285;-76
2022/05/08 08:11:24;;;;;;;;;;;;;;;17.72;67.20;101196.53;5051007;28;20100;-78
2022/05/08 08:14:09;;;;;;;;;;;;;;;17.88;67.00;101202.03;5053966;28;19912;-78
2022/05/08 08:16:53;;;;;;;;;;;;;;;18.14;66.70;101201.53;5053127;28;19912;-77
2022/05/08 08:19:38;;;;;;;;;;;;;;;18.10;66.15;101203.41;5054255;28;19935;-78
2022/05/08 08:22:22;;;;;;;;;;;;;;;18.40;65.31;101201.81;5058693;28;19912;-76
2022/05/08 08:25:07;;;;;;;;;;;;;;;18.62;64.70;101209.47;5051755;28;19913;-78
2022/05/08 08:27:53;;;;;;;;;;;;;;;18.85;64.28;101206.84;5067933;28;19913;-78
2022/05/08 08:30:39;;;;;;;;;;;;;;;18.87;63.67;101209.25;5051505;28;19921;-77
2022/05/08 08:33:26;;;;;;;;;;;;;;;18.78;63.98;101218.53;5054291;28;20380;-78
2022/05/08 08:36:11;;;;;;;;;;;;;;;18.82;63.93;101218.59;5051918;28;19912;-78
2022/05/08 08:38:56;;;;;;;;;;;;;;;18.83;63.83;101217.44;5056995;28;19913;-78
2022/05/08 08:41:42;;;;;;;;;;;;;;;18.91;63.45;101221.13;5049508;28;19916;-79
2022/05/08 08:47:44;;;;;;;;;;;;;;;18.88;62.62;101221.88;5055456;28;19913;-79
2022/05/08 08:50:29;;;;;;;;;;;;;;;18.90;62.48;101225.06;5057188;28;19913;-78
2022/05/08 08:53:13;;;;;;;;;;;;;;;19.34;61.36;101222.88;5046794;28;20300;-78
2022/05/08 08:56:00;;;;;;;;;;;;;;;19.59;60.43;101222.28;5049583;28;20383;-79
2022/05/08 08:58:44;;;;;;;;;;;;;;;20.01;58.71;101216.75;5069929;28;19913;-78
2022/05/08 09:01:33;;;;;;;;;;;;;;;20.37;57.53;101220.97;5061652;28;20384;-78
2022/05/08 09:04:19;;;;;;;;;;;;;;;20.39;56.52;101218.66;5057264;28;19913;-78
2022/05/08 09:07:03;;;;;;;;;;;;;;;20.61;56.21;101219.78;5057982;28;19913;-78
2022/05/08 09:09:48;;;;;;;;;;;;;;;20.55;56.49;101226.00;5054836;28;19920;-78
2022/05/08 09:12:32;;;;;;;;;;;;;;;20.37;56.38;101220.16;5067189;28;19913;-79
2022/05/08 09:15:26;;;;;;;;;;;;;;;20.34;56.29;101218.94;5057173;28;20281;-79
2022/05/08 09:18:13;;;;;;;;;;;;;;;20.33;57.13;101213.78;5054211;28;19913;-79
2022/05/08 09:21:54;;;;;;;;;;;;;;;20.36;55.95;101224.91;5060852;28;19917;-78
2022/05/08 09:24:11;;;;;;;;;;;;;;;20.53;55.72;101222.78;5055217;28;19913;-78
2022/05/08 09:27:14;;;;;;;;;;;;;;;20.39;54.60;101232.47;5054053;28;19913;-78
2022/05/08 09:30:08;;;;;;;;;;;;;;;20.57;54.24;101224.44;5047855;28;19916;-79
2022/05/08 09:32:52;;;;;;;;;;;;;;;20.74;53.24;101229.47;5054323;28;20317;-77
2022/05/08 09:35:44;;;;;;;;;;;;;;;20.72;53.46;101228.25;5055780;28;20052;-79
2022/05/08 09:38:41;;;;;;;;;;;;;;;20.52;55.31;101233.03;5055719;28;19916;-78
2022/05/08 09:41:27;;;;;;;;;;;;;;;20.44;55.23;101228.59;5038676;28;19916;-79
2022/05/08 09:44:11;;;;;;;;;;;;;;;20.53;55.49;101233.84;5073155;28;19916;-80
2022/05/08 09:46:57;;;;;;;;;;;;;;;20.40;56.17;101234.06;5058340;28;19913;-78
2022/05/08 09:49:43;;;;;;;;;;;;;;;20.04;57.11;101229.03;5060586;28;19913;-78
2022/05/08 09:52:27;;;;;;;;;;;;;;;19.95;57.79;101234.00;5052345;28;19912;-76
2022/05/08 09:55:13;;;;;;;;;;;;;;;19.92;57.81;101227.22;5056986;28;19913;-78
2022/05/08 09:57:59;;;;;;;;;;;;;;;19.77;57.97;101219.84;5055957;28;19912;-79
2022/05/08 10:00:45;;;;;;;;;;;;;;;19.70;58.45;101232.72;5054894;28;19917;-79
2022/05/08 10:03:30;;;;;;;;;;;;;;;19.76;58.64;101223.00;5050097;28;19913;-80
2022/05/08 10:06:14;;;;;;;;;;;;;;;19.73;59.08;101218.97;5054320;28;19913;-80
2022/05/08 10:15:18;;;;;;;;;;;;;;;20.24;56.64;101216.78;5060471;28;19917;-79
2022/05/08 10:18:21;;;;;;;;;;;;;;;20.14;56.57;101227.63;5068509;28;19912;-78
2022/05/08 10:21:12;;;;;;;;;;;;;;;20.20;56.19;101215.13;5057392;28;19917;-78
2022/05/08 10:23:56;;;;;;;;;;;;;;;20.05;57.41;101214.88;5043955;28;19913;-78
2022/05/08 10:27:01;;;;;;;;;;;;;;;20.25;56.76;101215.63;5043961;28;19913;-78
2022/05/08 10:29:53;;;;;;;;;;;;;;;20.59;55.54;101224.09;5058231;28;19913;-78
2022/05/08 10:32:40;;;;;;;;;;;;;;;20.60;55.32;101220.16;5048399;28;19921;-78
2022/05/08 10:35:26;;;;;;;;;;;;;;;20.80;54.96;101221.66;5058707;28;19921;-78
2022/05/08 10:38:21;;;;;;;;;;;;;;;20.96;51.58;101216.75;5062672;28;19912;-79
2022/05/08 10:41:25;;;;;;;;;;;;;;;21.43;49.77;101215.44;5069953;28;19925;-77
2022/05/08 10:44:30;;;;;;;;;;;;;;;22.62;48.17;101215.06;5056833;28;20308;-80
2022/05/08 10:47:33;;;;;;;;;;;;;;;23.46;44.89;101214.03;5052339;28;19912;-78
2022/05/08 10:50:17;;;;;;;;;;;;;;;27.08;38.28;101217.25;5051006;28;20308;-78
2022/05/08 10:53:02;;;;;;;;;;;;;;;30.67;30.49;101217.13;5048090;28;19913;-77
2022/05/08 10:55:46;;;;;;;;;;;;;;;32.98;25.78;101220.84;5051687;28;19920;-79
2022/05/08 10:58:32;;;;;;;;;;;;;;;33.97;22.92;101218.34;5049046;28;19913;-81
2022/05/08 11:01:17;;;;;;;;;;;;;;;34.71;21.59;101216.06;5059341;28;19917;-82
2022/05/08 11:04:10;;;;;;;;;;;;;;;33.50;23.39;101216.53;5058702;28;20377;-81
2022/05/08 11:06:55;;;;;;;;;;;;;;;31.49;24.83;101213.63;5053195;28;19912;-79
2022/05/08 11:09:39;;;;;;;;;;;;;;;32.06;23.49;101203.44;5057763;28;20490;-79
2022/05/08 11:12:24;;;;;;;;;;;;;;;32.27;23.22;101211.22;5056467;28;20381;-78
2022/05/08 11:15:09;;;;;;;;;;;;;;;32.57;22.63;101206.97;5057255;28;19913;-78
2022/05/08 11:18:12;;;;;;;;;;;;;;;29.84;25.38;101202.66;5057803;28;19912;-78
2022/05/08 11:20:59;;;;;;;;;;;;;;;26.69;29.99;101202.88;5058384;28;19917;-79
2022/05/08 11:23:44;;;;;;;;;;;;;;;25.60;32.17;101194.09;5058928;28;20531;-78
2022/05/08 11:26:30;;;;;;;;;;;;;;;24.85;32.79;101187.97;5053517;28;19921;-78
2022/05/08 11:29:14;;;;;;;;;;;;;;;24.81;32.96;101201.09;5050759;28;19913;-78
2022/05/08 11:38:11;;;;;;;;;;;;;;;26.11;30.21;101184.25;5056932;28;20292;-78
2022/05/08 11:40:56;;;;;;;;;;;;;;;26.27;30.57;101178.94;5052543;28;19917;-79
2022/05/08 11:43:41;;;;;;;;;;;;;;;25.92;30.36;101185.56;5053459;28;19913;-78
2022/05/08 11:46:34;;;;;;;;;;;;;;;26.20;30.53;101185.38;5053392;28;20394;-80
2022/05/08 11:49:26;;;;;;;;;;;;;;;26.87;30.03;101188.78;5058711;28;20514;-79
2022/05/08 11:52:19;;;;;;;;;;;;;;;26.95;28.88;101182.72;5053314;28;19913;-78
2022/05/08 11:55:03;;;;;;;;;;;;;;;25.16;31.92;101177.16;5057889;28;19921;-79
2022/05/08 11:57:49;;;;;;;;;;;;;;;24.87;32.77;101173.66;5056389;28;20404;-77
2022/05/08 12:00:34;;;;;;;;;;;;;;;25.94;31.51;101172.81;5049356;28;19916;-79
2022/05/08 12:03:25;;;;;;;;;;;;;;;27.26;29.27;101175.16;5051729;28;20373;-78
2022/05/08 12:06:11;;;;;;;;;;;;;;;26.51;29.99;101174.38;5049619;28;21532;-80
2022/05/08 12:09:05;;;;;;;;;;;;;;;25.53;31.11;101163.47;5048534;28;19916;-79
2022/05/08 12:11:49;;;;;;;;;;;;;;;25.26;31.48;101170.78;5065647;28;19938;-78
2022/05/08 12:14:36;;;;;;;;;;;;;;;25.19;31.68;101173.59;5053598;28;19913;-79
2022/05/08 12:17:24;;;;;;;;;;;;;;;24.99;32.90;101165.69;5053521;28;19913;-77
2022/05/08 12:20:08;;;;;;;;;;;;;;;25.10;32.79;101177.59;5053748;28;19920;-78
2022/05/08 12:23:03;;;;;;;;;;;;;;;24.19;32.04;101167.38;5055027;28;19913;-79
2022/05/08 12:25:48;;;;;;;;;;;;;;;23.79;33.51;101160.16;5045694;28;20336;-77
2022/05/08 12:28:42;;;;;;;;;;;;;;;24.03;33.12;101155.81;5054386;28;19917;-78
2022/05/08 12:31:27;;;;;;;;;;;;;;;23.92;33.46;101169.72;5052885;28;19913;-79
2022/05/08 12:34:12;;;;;;;;;;;;;;;25.09;32.23;101166.88;5051265;28;19921;-78
2022/05/08 12:36:57;;;;;;;;;;;;;;;26.18;30.38;101173.81;5049225;28;19912;-78
2022/05/08 12:39:42;;;;;;;;;;;;;;;26.95;28.81;101160.38;5049605;28;19916;-77
2022/05/08 12:42:27;;;;;;;;;;;;;;;27.55;28.95;101170.81;5048488;28;20238;-78
2022/05/08 12:45:12;;;;;;;;;;;;;;;27.87;27.38;101183.53;5053295;28;19916;-77
2022/05/08 12:47:56;;;;;;;;;;;;;;;27.10;28.18;101178.53;5047491;28;19913;-78
2022/05/08 12:50:40;;;;;;;;;;;;;;;27.13;29.10;101166.53;5044922;28;20337;-78
2022/05/08 12:53:25;;;;;;;;;;;;;;;27.03;29.14;101166.66;5046160;28;19913;-78
2022/05/08 12:56:09;;;;;;;;;;;;;;;26.79;29.57;101157.31;5043050;28;19913;-80
2022/05/08 13:01:57;;;;;;;;;;;;;;;26.79;29.73;101162.91;5052630;28;19916;-79
2022/05/08 13:04:42;;;;;;;;;;;;;;;26.22;29.66;101160.66;5056281;28;19912;-78
2022/05/08 13:07:26;;;;;;;;;;;;;;;25.42;31.83;101154.38;5049624;28;20396;-79
2022/05/08 13:10:11;;;;;;;;;;;;;;;25.72;31.06;101157.44;5055083;28;19912;-79
2022/05/08 13:12:55;;;;;;;;;;;;;;;24.98;31.57;101155.78;5042640;28;19912;-79
2022/05/08 13:15:39;;;;;;;;;;;;;;;25.18;31.25;101155.31;5050388;28;19912;-78
2022/05/08 13:18:24;;;;;;;;;;;;;;;25.24;30.90;101151.69;5069700;28;19913;-78
2022/05/08 13:21:08;;;;;;;;;;;;;;;25.21;31.56;101149.72;5058128;28;19935;-78
2022/05/08 13:23:53;;;;;;;;;;;;;;;25.30;30.44;101144.50;5052446;28;19913;-77
2022/05/08 13:26:37;;;;;;;;;;;;;;;25.18;30.99;101144.97;5052081;28;19912;-78
2022/05/08 13:29:22;;;;;;;;;;;;;;;24.84;31.29;101136.28;5051450;28;19913;-79
2022/05/08 13:32:07;;;;;;;;;;;;;;;24.70;33.16;101131.56;5051861;28;19912;-78
2022/05/08 13:34:51;;;;;;;;;;;;;;;24.33;33.76;101133.25;5051869;28;19914;-77
2022/05/08 13:37:35;;;;;;;;;;;;;;;24.71;32.19;101130.38;5052368;28;20289;-79
2022/05/08 13:40:19;;;;;;;;;;;;;;;24.95;32.14;101128.75;5051561;28;19912;-78
2022/05/08 13:43:04;;;;;;;;;;;;;;;25.31;31.85;101132.16;5071803;28;19913;-77
2022/05/08 13:45:49;;;;;;;;;;;;;;;25.26;31.91;101124.22;5058103;28;20300;-79
2022/05/08 13:48:36;;;;;;;;;;;;;;;25.40;30.67;101123.34;5037383;28;19913;-78
2022/05/08 13:51:21;;;;;;;;;;;;;;;25.71;31.62;101122.41;5059962;28;19913;-78
2022/05/08 13:54:07;;;;;;;;;;;;;;;25.40;31.16;101112.22;5057647;28;19913;-78
2022/05/08 13:56:52;;;;;;;;;;;;;;;25.24;31.34;101115.50;5054469;28;19917;-77
2022/05/08 13:59:36;;;;;;;;;;;;;;;24.84;31.46;101110.47;5079141;28;19912;-78
2022/05/08 14:02:20;;;;;;;;;;;;;;;24.62;30.67;101107.75;5058143;28;19917;-78
2022/05/08 14:05:07;;;;;;;;;;;;;;;24.62;31.00;101112.53;5055365;28;19913;-78
2022/05/08 14:07:53;;;;;;;;;;;;;;;24.59;32.23;101105.75;5089746;28;19913;-78
2022/05/08 14:10:38;;;;;;;;;;;;;;;24.62;31.25;101102.19;5054592;28;19912;-78
2022/05/08 14:13:22;;;;;;;;;;;;;;;24.50;32.57;101099.84;5059568;28;19913;-79
2022/05/08 14:16:07;;;;;;;;;;;;;;;24.47;31.00;101094.28;5056011;28;19916;-80
2022/05/08 14:18:51;;;;;;;;;;;;;;;24.41;32.18;101091.13;5057202;28;20398;-78
2022/05/08 14:21:36;;;;;;;;;;;;;;;24.20;31.68;101082.81;5055641;28;19916;-78
2022/05/08 14:24:20;;;;;;;;;;;;;;;24.11;31.49;101085.19;5053685;28;19913;-78
2022/05/08 14:27:08;;;;;;;;;;;;;;;24.22;31.13;101083.22;5054317;28;19912;-78
2022/05/08 14:29:55;;;;;;;;;;;;;;;24.05;31.34;101075.66;5055145;28;19913;-78
2022/05/08 14:36:04;;;;;;;;;;;;;;;24.26;30.87;101084.00;5052210;28;19912;-79
2022/05/08 14:38:48;;;;;;;;;;;;;;;23.58;31.44;101077.63;5050010;28;19924;-80
2022/05/08 14:41:33;;;;;;;;;;;;;;;23.25;31.70;101078.72;5053852;28;19916;-80
2022/05/08 14:44:17;;;;;;;;;;;;;;;23.69;31.00;101078.41;5048022;28;20308;-80
2022/05/08 14:47:02;;;;;;;;;;;;;;;23.52;30.86;101079.19;5053947;28;19912;-81
2022/05/08 14:49:47;;;;;;;;;;;;;;;23.58;31.67;101085.94;5053697;28;19913;-80